Time;durP1;ratioP1;P1;durP2;ratioP2;P2;SDS_P1;SDS_P2;PMS_P1;PMS_P2;Temp;Humidity;BMP_temperature;BMP_pressure;BME280_temperature;BME280_humidity;BME280_pressure;Samples;Min_cycle;Max_cycle;Signal;HPM_P1;HPM_P2
2023/05/15 00:00:39;;;;;;;7.93;4.10;;;;;;;;;;6290256;28;20341;-81
2023/05/15 00:03:39;;;;;;;7.57;3.63;;;;;;;;;;6306480;28;20089;-81
2023/05/15 00:06:39;;;;;;;6.37;3.80;;;;;;;;;;6288995;28;20020;-80
2023/05/15 00:09:40;;;;;;;6.13;3.40;;;;;;;;;;6282905;28;20023;-80
2023/05/15 00:12:40;;;;;;;6.18;4.00;;;;;;;;;;6282664;28;20028;-80
2023/05/15 00:15:40;;;;;;;6.63;4.10;;;;;;;;;;6299105;28;20012;-81
2023/05/15 00:18:40;;;;;;;9.53;4.50;;;;;;;;;;6314913;28;20019;-81
2023/05/15 00:21:41;;;;;;;7.50;4.23;;;;;;;;;;6309258;28;20051;-80
2023/05/15 00:24:41;;;;;;;9.13;4.60;;;;;;;;;;6297100;28;20023;-80
2023/05/15 00:27:41;;;;;;;10.73;5.53;;;;;;;;;;6289686;28;20021;-80
2023/05/15 00:30:41;;;;;;;9.20;5.20;;;;;;;;;;6297419;28;20142;-81
2023/05/15 00:33:42;;;;;;;8.85;4.82;;;;;;;;;;6310293;28;20481;-81
2023/05/15 00:36:42;;;;;;;15.33;6.87;;;;;;;;;;6314280;28;20045;-80
2023/05/15 00:39:43;;;;;;;13.30;5.10;;;;;;;;;;6310318;28;20048;-80
2023/05/15 00:42:43;;;;;;;11.00;5.33;;;;;;;;;;6284636;28;20111;-80
2023/05/15 00:45:44;;;;;;;9.40;5.97;;;;;;;;;;6310602;28;20016;-79
2023/05/15 00:48:45;;;;;;;12.20;5.67;;;;;;;;;;6309114;28;20055;-79
2023/05/15 00:51:45;;;;;;;12.83;5.83;;;;;;;;;;6303966;28;20330;-79
2023/05/15 00:54:45;;;;;;;17.20;5.80;;;;;;;;;;6307944;28;20463;-79
2023/05/15 00:57:48;;;;;;;8.43;5.77;;;;;;;;;;6303532;28;20016;-79
2023/05/15 01:00:49;;;;;;;13.10;5.53;;;;;;;;;;6313043;28;20016;-79
2023/05/15 01:03:49;;;;;;;12.97;7.20;;;;;;;;;;6302597;28;20099;-79
2023/05/15 01:06:52;;;;;;;12.77;6.40;;;;;;;;;;6308095;28;20020;-80
2023/05/15 01:09:53;;;;;;;16.00;6.15;;;;;;;;;;6283139;28;20505;-80
2023/05/15 01:12:54;;;;;;;14.40;5.60;;;;;;;;;;6306890;28;20095;-79
2023/05/15 01:15:54;;;;;;;13.23;5.65;;;;;;;;;;6300857;28;20164;-80
2023/05/15 01:18:54;;;;;;;13.90;5.73;;;;;;;;;;6301737;28;20390;-79
2023/05/15 01:22:33;;;;;;;11.60;5.38;;;;;;;;;;6310372;28;20017;-79
2023/05/15 01:25:44;;;;;;;9.20;5.50;;;;;;;;;;6238752;28;20123;-78
2023/05/15 01:28:47;;;;;;;10.10;6.03;;;;;;;;;;6243293;28;20571;-80
2023/05/15 01:31:54;;;;;;;7.80;4.63;;;;;;;;;;6308368;28;20012;-81
2023/05/15 01:35:08;;;;;;;11.10;5.47;;;;;;;;;;6294740;28;20131;-82
2023/05/15 01:38:11;;;;;;;11.10;5.82;;;;;;;;;;6304384;28;20098;-82
2023/05/15 01:41:14;;;;;;;9.55;5.35;;;;;;;;;;6306735;28;20021;-83
2023/05/15 01:44:21;;;;;;;10.60;5.18;;;;;;;;;;6293263;28;20027;-82
2023/05/15 01:47:26;;;;;;;9.73;6.07;;;;;;;;;;6306493;28;20043;-83
2023/05/15 01:50:26;;;;;;;9.13;4.70;;;;;;;;;;6308606;28;20048;-83
2023/05/15 01:53:29;;;;;;;8.73;4.60;;;;;;;;;;6307926;28;20474;-82
2023/05/15 01:56:30;;;;;;;8.27;4.97;;;;;;;;;;6295980;28;20062;-83
2023/05/15 01:59:30;;;;;;;9.77;4.60;;;;;;;;;;6294244;28;20028;-83
2023/05/15 02:02:31;;;;;;;10.17;4.27;;;;;;;;;;6295954;28;20496;-83
2023/05/15 02:05:32;;;;;;;12.27;4.67;;;;;;;;;;6311484;28;20009;-82
2023/05/15 02:08:33;;;;;;;8.27;4.87;;;;;;;;;;6319717;28;20551;-82
2023/05/15 02:11:33;;;;;;;7.90;5.23;;;;;;;;;;6312719;28;20039;-83
2023/05/15 02:14:33;;;;;;;7.27;5.10;;;;;;;;;;6293853;28;20028;-82
2023/05/15 02:17:34;;;;;;;6.90;4.53;;;;;;;;;;6310607;28;20023;-81
2023/05/15 02:20:34;;;;;;;8.10;4.93;;;;;;;;;;6315731;28;20103;-82
2023/05/15 02:23:34;;;;;;;7.83;4.83;;;;;;;;;;6306492;28;20015;-82
2023/05/15 02:26:44;;;;;;;10.10;5.03;;;;;;;;;;6295768;28;20047;-82
2023/05/15 02:29:53;;;;;;;6.70;4.35;;;;;;;;;;6299059;28;20078;-82
2023/05/15 02:32:58;;;;;;;7.72;4.55;;;;;;;;;;6290066;28;20031;-82
2023/05/15 02:36:00;;;;;;;8.13;5.28;;;;;;;;;;6290550;28;20058;-82
2023/05/15 02:39:01;;;;;;;8.73;6.00;;;;;;;;;;6310919;28;20020;-81
2023/05/15 02:42:01;;;;;;;9.07;4.23;;;;;;;;;;6305206;28;20412;-79
2023/05/15 02:45:03;;;;;;;5.50;4.20;;;;;;;;;;6304329;28;20382;-79
2023/05/15 02:48:04;;;;;;;9.37;4.23;;;;;;;;;;6299705;28;20040;-78
2023/05/15 02:51:05;;;;;;;11.93;5.33;;;;;;;;;;6302098;28;20081;-78
2023/05/15 02:54:07;;;;;;;6.57;4.30;;;;;;;;;;6300913;28;20104;-78
2023/05/15 02:57:07;;;;;;;7.28;4.60;;;;;;;;;;6277500;28;20024;-78
2023/05/15 03:00:12;;;;;;;6.37;4.40;;;;;;;;;;6305781;28;20643;-78
2023/05/15 03:03:12;;;;;;;11.02;5.00;;;;;;;;;;6299324;28;20019;-78
2023/05/15 03:06:12;;;;;;;6.60;4.07;;;;;;;;;;6302342;28;20000;-79
2023/05/15 03:09:12;;;;;;;8.98;4.57;;;;;;;;;;6298783;28;20026;-79
2023/05/15 03:12:13;;;;;;;10.30;5.05;;;;;;;;;;6309782;28;20024;-79
2023/05/15 03:15:15;;;;;;;11.07;4.73;;;;;;;;;;6316035;28;20514;-79
2023/05/15 03:18:17;;;;;;;7.47;4.10;;;;;;;;;;6290527;28;20032;-79
2023/05/15 03:21:18;;;;;;;9.90;5.72;;;;;;;;;;6275676;28;20013;-80
2023/05/15 03:24:18;;;;;;;9.00;4.73;;;;;;;;;;6311605;28;20371;-80
2023/05/15 03:27:18;;;;;;;8.90;4.90;;;;;;;;;;6313432;28;20708;-80
2023/05/15 03:30:19;;;;;;;6.93;4.50;;;;;;;;;;6305826;28;20100;-81
2023/05/15 03:33:20;;;;;;;8.50;4.70;;;;;;;;;;6293185;28;20170;-80
2023/05/15 03:36:21;;;;;;;7.70;5.40;;;;;;;;;;6298399;28;20258;-79
2023/05/15 03:39:21;;;;;;;8.60;5.33;;;;;;;;;;6314296;28;20036;-80
2023/05/15 03:42:24;;;;;;;7.80;4.82;;;;;;;;;;6316878;28;20684;-80
2023/05/15 03:45:25;;;;;;;8.15;5.65;;;;;;;;;;6295937;28;20032;-80
2023/05/15 03:48:25;;;;;;;7.80;5.70;;;;;;;;;;6290591;28;20031;-80
2023/05/15 03:51:25;;;;;;;10.18;5.18;;;;;;;;;;6317697;28;20027;-81
2023/05/15 03:54:25;;;;;;;8.87;4.67;;;;;;;;;;6340287;27;20027;-82
2023/05/15 03:57:26;;;;;;;7.67;5.17;;;;;;;;;;6333427;28;20032;-83
2023/05/15 04:00:27;;;;;;;8.33;4.63;;;;;;;;;;6329728;28;20012;-81
2023/05/15 04:03:27;;;;;;;8.75;5.43;;;;;;;;;;6339108;28;20026;-80
2023/05/15 04:06:27;;;;;;;6.88;4.82;;;;;;;;;;6332948;28;20484;-80
2023/05/15 04:09:28;;;;;;;7.30;5.20;;;;;;;;;;6342924;27;20023;-80
2023/05/15 04:12:28;;;;;;;7.65;4.45;;;;;;;;;;6340036;28;20058;-80
2023/05/15 04:15:28;;;;;;;7.77;4.87;;;;;;;;;;6341444;28;20031;-81
2023/05/15 04:18:29;;;;;;;7.67;4.83;;;;;;;;;;6326677;28;20043;-79
2023/05/15 04:21:29;;;;;;;6.70;4.47;;;;;;;;;;6322479;28;20077;-79
2023/05/15 04:24:29;;;;;;;8.23;4.20;;;;;;;;;;6328213;28;20016;-80
2023/05/15 04:27:29;;;;;;;8.40;4.37;;;;;;;;;;6327878;28;20031;-80
2023/05/15 04:30:30;;;;;;;8.37;4.47;;;;;;;;;;6320218;28;20512;-79
2023/05/15 04:33:30;;;;;;;10.33;4.33;;;;;;;;;;6333804;28;20012;-80
2023/05/15 04:36:30;;;;;;;6.15;4.47;;;;;;;;;;6327767;28;20020;-80
2023/05/15 04:39:30;;;;;;;8.57;5.10;;;;;;;;;;6312990;28;20023;-80
2023/05/15 04:42:31;;;;;;;9.93;4.10;;;;;;;;;;6322306;28;20012;-79
2023/05/15 04:45:33;;;;;;;7.83;4.20;;;;;;;;;;6326891;28;20023;-81
2023/05/15 04:48:33;;;;;;;7.13;4.53;;;;;;;;;;6333210;28;20023;-80
2023/05/15 04:51:33;;;;;;;6.97;4.83;;;;;;;;;;6337480;28;20059;-80
2023/05/15 04:54:34;;;;;;;7.37;4.27;;;;;;;;;;6336682;28;20591;-81
2023/05/15 04:57:34;;;;;;;6.57;4.13;;;;;;;;;;6340721;28;20032;-80
2023/05/15 05:00:34;;;;;;;7.07;3.83;;;;;;;;;;6328035;28;20012;-78
2023/05/15 05:03:34;;;;;;;5.80;4.10;;;;;;;;;;6327443;28;20016;-78
2023/05/15 05:06:35;;;;;;;5.20;3.58;;;;;;;;;;6322238;27;20099;-78
2023/05/15 05:09:36;;;;;;;7.65;3.85;;;;;;;;;;6325231;27;20028;-78
2023/05/15 05:12:36;;;;;;;5.43;3.72;;;;;;;;;;6320284;28;20034;-83
2023/05/15 05:15:37;;;;;;;5.20;3.47;;;;;;;;;;6323451;28;20028;-83
2023/05/15 05:18:37;;;;;;;4.97;3.27;;;;;;;;;;6312971;28;20032;-83
2023/05/15 05:21:37;;;;;;;5.00;3.50;;;;;;;;;;6332499;28;20020;-83
2023/05/15 05:24:38;;;;;;;6.60;4.70;;;;;;;;;;6329563;28;20645;-83
2023/05/15 05:27:38;;;;;;;5.40;3.40;;;;;;;;;;6333320;28;20028;-84
2023/05/15 05:30:38;;;;;;;4.50;3.37;;;;;;;;;;6332981;28;20554;-84
2023/05/15 05:33:38;;;;;;;7.03;3.28;;;;;;;;;;6335658;28;20489;-84
2023/05/15 05:36:39;;;;;;;7.30;3.93;;;;;;;;;;6317634;28;20024;-82
2023/05/15 05:39:39;;;;;;;8.10;4.67;;;;;;;;;;6337464;28;20023;-84
2023/05/15 05:42:40;;;;;;;8.37;4.47;;;;;;;;;;6326564;28;20016;-83
2023/05/15 05:45:41;;;;;;;6.10;4.00;;;;;;;;;;6339494;28;20012;-84
2023/05/15 05:48:41;;;;;;;7.70;3.77;;;;;;;;;;6337938;28;20015;-84
2023/05/15 05:51:41;;;;;;;6.17;3.37;;;;;;;;;;6334956;28;20024;-84
2023/05/15 05:54:44;;;;;;;5.05;3.50;;;;;;;;;;6323679;28;20103;-84
2023/05/15 05:57:45;;;;;;;9.57;4.07;;;;;;;;;;6337137;28;20034;-81
2023/05/15 06:00:45;;;;;;;3.97;3.03;;;;;;;;;;6320861;28;20369;-84
2023/05/15 06:03:45;;;;;;;4.13;3.33;;;;;;;;;;6314676;28;20025;-85
2023/05/15 06:06:46;;;;;;;6.73;3.97;;;;;;;;;;6328363;28;20044;-84
2023/05/15 06:09:47;;;;;;;6.22;3.85;;;;;;;;;;6339169;28;20016;-79
2023/05/15 06:12:47;;;;;;;7.60;3.90;;;;;;;;;;6328722;28;20023;-83
2023/05/15 06:15:48;;;;;;;6.73;3.80;;;;;;;;;;6338180;28;20062;-84
2023/05/15 06:18:48;;;;;;;6.67;4.27;;;;;;;;;;6335038;28;20040;-83
2023/05/15 06:21:50;;;;;;;6.67;4.53;;;;;;;;;;6307434;28;20016;-79
2023/05/15 06:24:50;;;;;;;6.70;4.70;;;;;;;;;;6321531;28;20043;-79
2023/05/15 06:27:50;;;;;;;7.27;4.63;;;;;;;;;;6325146;28;20016;-79
2023/05/15 06:30:51;;;;;;;9.97;6.10;;;;;;;;;;6331773;28;20055;-79
2023/05/15 06:33:51;;;;;;;7.50;5.00;;;;;;;;;;6332018;28;20045;-78
2023/05/15 06:36:52;;;;;;;7.23;5.10;;;;;;;;;;6329261;28;20027;-78
2023/05/15 06:39:52;;;;;;;5.07;3.80;;;;;;;;;;6323636;28;20047;-79
2023/05/15 06:42:53;;;;;;;7.87;4.40;;;;;;;;;;6334537;28;20064;-79
2023/05/15 06:45:53;;;;;;;6.60;4.13;;;;;;;;;;6319024;28;20397;-79
2023/05/15 06:48:53;;;;;;;10.63;4.70;;;;;;;;;;6296710;28;20635;-78
2023/05/15 06:51:54;;;;;;;9.63;6.90;;;;;;;;;;6329725;28;20039;-78
2023/05/15 06:54:54;;;;;;;4.87;3.73;;;;;;;;;;6320273;28;20110;-78
2023/05/15 06:57:54;;;;;;;6.10;4.50;;;;;;;;;;6326461;28;20050;-78
2023/05/15 07:00:54;;;;;;;6.30;3.80;;;;;;;;;;6332344;28;20019;-78
2023/05/15 07:03:55;;;;;;;5.07;3.20;;;;;;;;;;6316981;28;20020;-78
2023/05/15 07:06:55;;;;;;;5.47;3.47;;;;;;;;;;6310578;28;20027;-78
2023/05/15 07:09:55;;;;;;;6.07;3.40;;;;;;;;;;6329510;27;20012;-78
2023/05/15 07:12:56;;;;;;;6.43;4.07;;;;;;;;;;6329817;28;20050;-78
2023/05/15 07:15:56;;;;;;;8.53;5.73;;;;;;;;;;6341762;28;20395;-78
2023/05/15 07:18:56;;;;;;;6.33;4.40;;;;;;;;;;6330183;28;20482;-78
2023/05/15 07:21:56;;;;;;;9.43;5.73;;;;;;;;;;6329172;28;20023;-82
2023/05/15 07:24:56;;;;;;;7.13;4.63;;;;;;;;;;6326097;28;20046;-83
2023/05/15 07:27:57;;;;;;;4.87;3.90;;;;;;;;;;6340047;28;20023;-83
2023/05/15 07:30:57;;;;;;;7.10;4.03;;;;;;;;;;6325765;28;20035;-79
2023/05/15 07:33:57;;;;;;;7.83;4.27;;;;;;;;;;6340780;27;20016;-79
2023/05/15 07:36:57;;;;;;;7.70;5.13;;;;;;;;;;6341371;28;20051;-80
2023/05/15 07:39:58;;;;;;;7.30;5.20;;;;;;;;;;6324600;28;20103;-79
2023/05/15 07:42:58;;;;;;;7.40;5.37;;;;;;;;;;6331300;28;20019;-80
2023/05/15 07:45:59;;;;;;;8.67;5.50;;;;;;;;;;6329733;28;20011;-80
2023/05/15 07:49:00;;;;;;;9.23;6.10;;;;;;;;;;6329262;28;20522;-80
2023/05/15 07:52:00;;;;;;;10.80;6.50;;;;;;;;;;6330377;28;20042;-80
2023/05/15 07:55:00;;;;;;;7.03;4.80;;;;;;;;;;6325859;28;20055;-80
2023/05/15 07:58:01;;;;;;;10.47;6.03;;;;;;;;;;6330199;28;20041;-80
2023/05/15 08:01:01;;;;;;;10.70;7.47;;;;;;;;;;6330524;28;20036;-80
2023/05/15 08:04:04;;;;;;;10.60;7.07;;;;;;;;;;6337159;28;20020;-79
2023/05/15 08:07:05;;;;;;;12.15;7.35;;;;;;;;;;6328653;28;20052;-79
2023/05/15 08:10:06;;;;;;;12.27;7.60;;;;;;;;;;6319868;28;20019;-79
2023/05/15 08:13:06;;;;;;;10.23;7.30;;;;;;;;;;6321799;28;20024;-80
2023/05/15 08:16:06;;;;;;;10.90;7.37;;;;;;;;;;6328090;28;20763;-80
2023/05/15 08:19:06;;;;;;;14.00;8.67;;;;;;;;;;6334067;28;20397;-80
2023/05/15 08:22:07;;;;;;;10.83;8.17;;;;;;;;;;6322403;28;20445;-80
2023/05/15 08:25:07;;;;;;;12.43;8.13;;;;;;;;;;6296879;28;20018;-81
2023/05/15 08:28:09;;;;;;;15.03;10.27;;;;;;;;;;6329345;28;20104;-80
2023/05/15 08:31:09;;;;;;;13.60;8.15;;;;;;;;;;6334394;28;20027;-84
2023/05/15 08:34:11;;;;;;;20.80;15.63;;;;;;;;;;6336914;28;20047;-83
2023/05/15 08:37:11;;;;;;;16.83;13.13;;;;;;;;;;6331898;28;20066;-83
2023/05/15 08:40:12;;;;;;;17.73;11.43;;;;;;;;;;6318911;28;20747;-84
2023/05/15 08:43:14;;;;;;;18.37;12.53;;;;;;;;;;6327952;28;20004;-83
2023/05/15 08:46:14;;;;;;;15.77;12.23;;;;;;;;;;6324242;28;20114;-83
2023/05/15 08:49:29;;;;;;;11.50;8.10;;;;;;;;;;6279361;28;1125371;-83
2023/05/15 08:52:31;;;;;;;12.02;7.25;;;;;;;;;;6310966;28;20024;-83
2023/05/15 08:55:31;;;;;;;10.98;7.15;;;;;;;;;;6299950;28;20024;-84
2023/05/15 08:58:32;;;;;;;10.53;7.60;;;;;;;;;;6280537;28;20019;-83
2023/05/15 09:01:32;;;;;;;10.07;7.13;;;;;;;;;;6302704;28;20049;-83
2023/05/15 09:04:33;;;;;;;9.47;6.90;;;;;;;;;;6314793;28;20085;-83
2023/05/15 09:07:33;;;;;;;9.30;6.23;;;;;;;;;;6303333;28;20038;-82
2023/05/15 09:10:35;;;;;;;7.23;4.93;;;;;;;;;;6298200;28;20027;-83
2023/05/15 09:13:35;;;;;;;9.68;6.00;;;;;;;;;;6308388;28;20016;-83
2023/05/15 09:16:37;;;;;;;7.75;5.78;;;;;;;;;;6310682;28;20074;-83
2023/05/15 09:19:39;;;;;;;11.23;7.88;;;;;;;;;;6297941;28;20088;-83
2023/05/15 09:22:39;;;;;;;10.15;7.82;;;;;;;;;;6306873;28;20020;-83
2023/05/15 09:25:41;;;;;;;9.33;6.70;;;;;;;;;;6278450;28;20074;-83
2023/05/15 09:28:42;;;;;;;14.90;8.45;;;;;;;;;;6291410;28;20573;-83
2023/05/15 09:31:42;;;;;;;12.53;7.57;;;;;;;;;;6301455;28;20012;-82
2023/05/15 09:34:43;;;;;;;12.97;6.97;;;;;;;;;;6308183;28;20012;-82
2023/05/15 09:37:43;;;;;;;8.35;5.80;;;;;;;;;;6297926;28;20099;-81
2023/05/15 09:40:43;;;;;;;13.35;7.10;;;;;;;;;;6306801;28;20490;-81
2023/05/15 09:43:44;;;;;;;11.32;7.40;;;;;;;;;;6310857;28;20020;-81
2023/05/15 09:46:44;;;;;;;9.50;6.33;;;;;;;;;;6294995;28;20046;-80
2023/05/15 09:49:45;;;;;;;10.50;7.10;;;;;;;;;;6314622;28;20135;-80
2023/05/15 09:52:45;;;;;;;10.45;5.50;;;;;;;;;;6329588;28;20024;-79
2023/05/15 09:55:46;;;;;;;10.47;5.50;;;;;;;;;;6330272;28;20483;-79
2023/05/15 09:58:57;;;;;;;9.63;6.57;;;;;;;;;;6331720;28;20449;-78
2023/05/15 10:01:57;;;;;;;7.05;5.07;;;;;;;;;;6329446;28;20092;-79
2023/05/15 10:04:57;;;;;;;9.63;5.82;;;;;;;;;;6320783;28;20020;-79
2023/05/15 10:07:58;;;;;;;9.23;6.13;;;;;;;;;;6312596;28;20023;-80
2023/05/15 10:10:59;;;;;;;8.43;5.77;;;;;;;;;;6325018;28;20153;-80
2023/05/15 10:14:00;;;;;;;10.80;5.60;;;;;;;;;;6324230;28;20072;-79
2023/05/15 10:17:01;;;;;;;7.75;5.07;;;;;;;;;;6331475;28;20023;-80
2023/05/15 10:20:01;;;;;;;7.30;4.90;;;;;;;;;;6340062;28;20027;-80
2023/05/15 10:23:03;;;;;;;7.10;4.20;;;;;;;;;;6337087;28;20471;-81
2023/05/15 10:26:07;;;;;;;6.07;4.25;;;;;;;;;;6308164;28;20016;-82
2023/05/15 10:29:11;;;;;;;8.35;5.47;;;;;;;;;;6342035;28;20043;-81
2023/05/15 10:32:12;;;;;;;13.30;8.02;;;;;;;;;;6330952;28;20047;-82
2023/05/15 10:35:13;;;;;;;9.27;5.07;;;;;;;;;;6332136;28;20027;-82
2023/05/15 10:38:14;;;;;;;4.10;3.10;;;;;;;;;;6310595;28;20763;-81
2023/05/15 10:41:16;;;;;;;11.02;3.75;;;;;;;;;;6330424;28;20027;-81
2023/05/15 10:44:16;;;;;;;8.25;5.35;;;;;;;;;;6329890;28;20020;-81
2023/05/15 10:47:17;;;;;;;12.80;7.53;;;;;;;;;;6326624;28;20481;-81
2023/05/15 10:50:17;;;;;;;10.23;8.47;;;;;;;;;;6327828;28;20058;-81
2023/05/15 10:53:18;;;;;;;12.53;9.47;;;;;;;;;;6339168;28;20021;-80
2023/05/15 10:56:18;;;;;;;10.70;8.17;;;;;;;;;;6336880;28;20054;-81
2023/05/15 10:59:20;;;;;;;13.80;8.83;;;;;;;;;;6340194;28;20659;-82
2023/05/15 11:02:22;;;;;;;11.43;8.82;;;;;;;;;;6330717;28;20178;-77
2023/05/15 11:05:23;;;;;;;10.77;7.32;;;;;;;;;;6331860;28;20044;-76
2023/05/15 11:08:24;;;;;;;12.53;7.60;;;;;;;;;;6321031;28;20008;-77
2023/05/15 11:11:24;;;;;;;;;;;;;;;;;;6311855;28;20031;-76
2023/05/15 11:14:27;;;;;;;12.48;9.07;;;;;;;;;;6340598;28;19912;-77
2023/05/15 11:17:30;;;;;;;13.32;9.43;;;;;;;;;;6331550;28;20026;-76
2023/05/15 11:20:36;;;;;;;12.80;8.68;;;;;;;;;;6337205;28;20073;-76
2023/05/15 11:23:38;;;;;;;12.80;9.13;;;;;;;;;;6307766;28;20066;-76
2023/05/15 11:26:41;;;;;;;8.27;5.20;;;;;;;;;;6308314;28;20012;-76
2023/05/15 11:30:00;;;;;;;8.10;4.85;;;;;;;;;;6326060;28;20020;-76
2023/05/15 11:33:03;;;;;;;7.38;4.50;;;;;;;;;;6330028;28;20587;-75
2023/05/15 11:36:04;;;;;;;6.95;4.47;;;;;;;;;;6328581;28;20020;-75
2023/05/15 11:39:11;;;;;;;8.70;5.53;;;;;;;;;;6303978;28;20031;-76
2023/05/15 11:42:11;;;;;;;7.15;4.50;;;;;;;;;;6327197;28;20016;-75
2023/05/15 11:45:11;;;;;;;6.60;4.93;;;;;;;;;;6338098;28;20027;-76
2023/05/15 11:48:13;;;;;;;6.53;4.90;;;;;;;;;;6325590;27;20469;-76
2023/05/15 11:51:21;;;;;;;6.43;5.32;;;;;;;;;;6335125;27;20040;-76
2023/05/15 11:54:22;;;;;;;6.53;4.25;;;;;;;;;;6333659;28;20035;-76
2023/05/15 11:57:23;;;;;;;8.32;5.53;;;;;;;;;;6334438;28;20470;-75
2023/05/15 12:00:23;;;;;;;7.07;4.77;;;;;;;;;;6338390;28;20095;-78
2023/05/15 12:03:31;;;;;;;10.47;6.53;;;;;;;;;;6330983;28;20421;-78
2023/05/15 12:06:31;;;;;;;7.68;4.95;;;;;;;;;;6327743;28;20023;-78
2023/05/15 12:09:31;;;;;;;9.93;6.00;;;;;;;;;;6332850;28;20012;-79
2023/05/15 12:12:31;;;;;;;9.37;4.90;;;;;;;;;;6333889;27;20433;-78
2023/05/15 12:15:35;;;;;;;6.53;4.50;;;;;;;;;;6340080;28;20015;-78
2023/05/15 12:18:35;;;;;;;8.48;3.83;;;;;;;;;;6336774;27;20492;-78
2023/05/15 12:21:41;;;;;;;4.47;3.40;;;;;;;;;;6336589;28;20015;-78
2023/05/15 12:24:42;;;;;;;5.05;3.60;;;;;;;;;;6338408;28;20014;-78
2023/05/15 12:27:42;;;;;;;5.20;3.60;;;;;;;;;;6326493;28;20469;-78
2023/05/15 12:30:42;;;;;;;6.93;4.50;;;;;;;;;;6331872;28;20044;-78
2023/05/15 12:33:43;;;;;;;6.30;4.40;;;;;;;;;;6332515;28;20042;-78
2023/05/15 12:36:43;;;;;;;8.10;4.60;;;;;;;;;;6320743;28;20015;-78
2023/05/15 12:39:50;;;;;;;5.47;4.03;;;;;;;;;;6336795;28;20038;-78
2023/05/15 12:42:52;;;;;;;5.50;4.28;;;;;;;;;;6331018;28;20039;-78
2023/05/15 12:45:54;;;;;;;6.13;3.78;;;;;;;;;;6329511;28;20653;-78
2023/05/15 12:48:56;;;;;;;7.05;4.80;;;;;;;;;;6329487;27;20051;-78
2023/05/15 12:51:57;;;;;;;7.82;4.35;;;;;;;;;;6334201;28;20030;-78
2023/05/15 12:55:00;;;;;;;7.50;4.68;;;;;;;;;;6332130;28;20095;-78
2023/05/15 12:58:03;;;;;;;6.13;4.35;;;;;;;;;;6331847;28;20031;-79
2023/05/15 13:01:03;;;;;;;5.78;4.32;;;;;;;;;;6331935;28;20023;-79
2023/05/15 13:04:03;;;;;;;6.47;4.07;;;;;;;;;;6315872;28;20030;-79
2023/05/15 13:07:04;;;;;;;7.60;4.30;;;;;;;;;;6308532;28;20447;-79
2023/05/15 13:10:04;;;;;;;6.93;4.23;;;;;;;;;;6323917;28;20019;-77
2023/05/15 13:13:05;;;;;;;5.27;3.90;;;;;;;;;;6328217;28;20077;-77
2023/05/15 13:16:05;;;;;;;5.30;3.73;;;;;;;;;;6331625;28;20027;-77
2023/05/15 13:19:06;;;;;;;5.40;3.87;;;;;;;;;;6323916;28;20051;-77
2023/05/15 13:22:06;;;;;;;5.53;3.50;;;;;;;;;;6336673;28;20024;-77
2023/05/15 13:25:07;;;;;;;4.90;3.28;;;;;;;;;;6335476;28;20012;-77
2023/05/15 13:28:09;;;;;;;6.25;3.63;;;;;;;;;;6339969;27;20354;-77
2023/05/15 13:31:09;;;;;;;6.68;4.78;;;;;;;;;;6331835;28;20047;-77
2023/05/15 13:34:09;;;;;;;7.23;4.60;;;;;;;;;;6333492;28;20020;-77
2023/05/15 13:37:09;;;;;;;8.55;5.60;;;;;;;;;;6333043;28;20055;-77
2023/05/15 13:40:12;;;;;;;9.87;6.03;;;;;;;;;;6327859;28;20061;-77
2023/05/15 13:43:12;;;;;;;9.25;6.15;;;;;;;;;;6333224;28;20020;-78
2023/05/15 13:46:12;;;;;;;10.20;7.35;;;;;;;;;;6331872;28;20436;-79
2023/05/15 13:49:13;;;;;;;11.63;7.83;;;;;;;;;;6333706;27;20054;-78
2023/05/15 13:52:14;;;;;;;11.87;8.17;;;;;;;;;;6314611;28;20042;-77
2023/05/15 13:55:14;;;;;;;9.87;5.80;;;;;;;;;;6325346;28;20018;-77
2023/05/15 13:58:14;;;;;;;7.97;5.37;;;;;;;;;;6319239;28;20093;-77
2023/05/15 14:01:14;;;;;;;9.63;5.53;;;;;;;;;;6332859;28;20032;-77
2023/05/15 14:04:15;;;;;;;10.50;6.57;;;;;;;;;;6340213;28;20031;-76
2023/05/15 14:07:15;;;;;;;8.97;6.63;;;;;;;;;;6312149;28;20020;-76
2023/05/15 14:10:15;;;;;;;13.03;6.70;;;;;;;;;;6327929;28;20905;-76
2023/05/15 14:13:16;;;;;;;11.27;6.30;;;;;;;;;;6334478;28;20026;-76
2023/05/15 14:16:16;;;;;;;9.50;6.60;;;;;;;;;;6337866;28;20028;-76
2023/05/15 14:19:16;;;;;;;10.70;6.63;;;;;;;;;;6320609;28;20160;-76
2023/05/15 14:22:17;;;;;;;11.80;8.13;;;;;;;;;;6330401;27;20027;-80
2023/05/15 14:25:17;;;;;;;12.97;9.20;;;;;;;;;;6333791;27;20016;-79
2023/05/15 14:28:17;;;;;;;12.27;9.02;;;;;;;;;;6329924;28;20370;-79
2023/05/15 14:31:17;;;;;;;9.47;7.17;;;;;;;;;;6324897;28;20026;-76
2023/05/15 14:34:18;;;;;;;12.50;8.73;;;;;;;;;;6331743;28;20101;-76
2023/05/15 14:37:18;;;;;;;12.17;8.97;;;;;;;;;;6327019;27;20059;-76
2023/05/15 14:40:18;;;;;;;10.63;7.37;;;;;;;;;;6318954;28;20011;-76
2023/05/15 14:43:19;;;;;;;13.47;7.00;;;;;;;;;;6338696;28;20011;-76
2023/05/15 14:46:19;;;;;;;8.77;6.97;;;;;;;;;;6332758;28;20390;-76
2023/05/15 14:49:19;;;;;;;9.80;6.17;;;;;;;;;;6326287;28;20089;-77
2023/05/15 14:52:19;;;;;;;7.50;5.87;;;;;;;;;;6341230;28;20488;-76
2023/05/15 14:55:20;;;;;;;9.07;5.83;;;;;;;;;;6321739;28;20032;-76
2023/05/15 14:58:21;;;;;;;8.60;3.72;;;;;;;;;;6326770;28;20055;-76
2023/05/15 15:01:21;;;;;;;6.17;4.77;;;;;;;;;;6325786;28;20019;-76
2023/05/15 15:04:21;;;;;;;5.63;3.90;;;;;;;;;;6323527;28;20103;-76
2023/05/15 15:07:21;;;;;;;9.03;3.87;;;;;;;;;;6316525;28;20024;-76
2023/05/15 15:10:22;;;;;;;2.73;1.97;;;;;;;;;;6309920;28;20106;-76
2023/05/15 15:13:25;;;;;;;1.75;1.52;;;;;;;;;;6312592;28;20039;-75
2023/05/15 15:16:25;;;;;;;8.23;5.38;;;;;;;;;;6339474;28;20016;-75
2023/05/15 15:19:25;;;;;;;3.90;2.30;;;;;;;;;;6325155;28;20043;-75
2023/05/15 15:22:25;;;;;;;3.00;1.60;;;;;;;;;;6329031;28;20043;-75
2023/05/15 15:25:26;;;;;;;3.43;1.83;;;;;;;;;;6335581;28;20008;-75
2023/05/15 15:28:28;;;;;;;3.00;1.67;;;;;;;;;;6314132;28;20526;-75
2023/05/15 15:31:29;;;;;;;7.32;3.00;;;;;;;;;;6334908;28;20031;-76
2023/05/15 15:34:29;;;;;;;6.55;2.58;;;;;;;;;;6315100;28;20363;-76
2023/05/15 15:37:30;;;;;;;4.13;2.20;;;;;;;;;;6341031;27;20020;-77
2023/05/15 15:40:30;;;;;;;3.55;2.33;;;;;;;;;;6333008;28;20053;-77
2023/05/15 15:43:31;;;;;;;4.67;2.20;;;;;;;;;;6334501;28;20043;-77
2023/05/15 15:46:31;;;;;;;3.57;1.90;;;;;;;;;;6341328;27;20020;-77
2023/05/15 15:49:31;;;;;;;5.70;1.93;;;;;;;;;;6329948;28;20118;-77
2023/05/15 15:52:31;;;;;;;4.35;2.83;;;;;;;;;;6321122;28;20134;-77
2023/05/15 15:55:32;;;;;;;5.77;2.07;;;;;;;;;;6331352;28;20024;-77
2023/05/15 15:58:32;;;;;;;4.00;2.28;;;;;;;;;;6340639;28;20148;-75
2023/05/15 16:01:32;;;;;;;4.10;2.10;;;;;;;;;;6331571;28;20396;-75
2023/05/15 16:04:33;;;;;;;3.77;1.87;;;;;;;;;;6325129;28;20024;-75
2023/05/15 16:07:33;;;;;;;2.20;1.40;;;;;;;;;;6309334;28;20059;-75
2023/05/15 16:10:33;;;;;;;6.37;1.50;;;;;;;;;;6332265;28;20022;-75
2023/05/15 16:13:33;;;;;;;2.40;1.00;;;;;;;;;;6340056;28;20379;-75
2023/05/15 16:16:34;;;;;;;3.07;1.37;;;;;;;;;;6326290;28;20019;-75
2023/05/15 16:19:34;;;;;;;4.33;1.43;;;;;;;;;;6335744;28;20118;-75
2023/05/15 16:22:34;;;;;;;5.10;1.90;;;;;;;;;;6329711;27;20030;-77
2023/05/15 16:25:35;;;;;;;6.17;1.87;;;;;;;;;;6334477;28;20015;-77
2023/05/15 16:28:35;;;;;;;3.70;1.93;;;;;;;;;;6338799;27;20098;-77
2023/05/15 16:31:37;;;;;;;5.07;1.87;;;;;;;;;;6319801;28;20111;-77
2023/05/15 16:34:37;;;;;;;4.88;1.58;;;;;;;;;;6324561;28;20633;-77
2023/05/15 16:37:37;;;;;;;3.73;1.47;;;;;;;;;;6327264;28;20025;-76
2023/05/15 16:40:37;;;;;;;3.27;1.40;;;;;;;;;;6331686;28;20023;-76
2023/05/15 16:43:38;;;;;;;2.13;1.37;;;;;;;;;;6307812;28;20024;-76
2023/05/15 16:46:39;;;;;;;3.73;2.00;;;;;;;;;;6340344;27;20048;-77
2023/05/15 16:49:40;;;;;;;;;;;;;;;;;;6334015;27;20044;-77
2023/05/15 16:52:44;;;;;;;4.18;1.60;;;;;;;;;;6334794;28;19904;-77
2023/05/15 16:55:45;;;;;;;2.67;1.55;;;;;;;;;;6336154;27;20464;-77
2023/05/15 16:58:45;;;;;;;1.83;1.10;;;;;;;;;;6340337;27;20028;-77
2023/05/15 17:01:46;;;;;;;4.87;2.27;;;;;;;;;;6332066;27;20019;-77
2023/05/15 17:04:46;;;;;;;2.35;1.58;;;;;;;;;;6327678;28;20012;-77
2023/05/15 17:07:46;;;;;;;2.83;1.50;;;;;;;;;;6332675;28;20023;-76
2023/05/15 17:10:46;;;;;;;2.60;1.90;;;;;;;;;;6322176;28;20101;-77
2023/05/15 17:13:47;;;;;;;3.10;1.43;;;;;;;;;;6327587;27;20040;-77
2023/05/15 17:16:47;;;;;;;4.67;1.53;;;;;;;;;;6331456;28;20030;-77
2023/05/15 17:19:47;;;;;;;4.93;1.80;;;;;;;;;;6329970;28;20456;-77
2023/05/15 17:22:47;;;;;;;3.03;1.93;;;;;;;;;;6329273;27;20012;-77
2023/05/15 17:25:48;;;;;;;3.50;1.73;;;;;;;;;;6318590;28;20443;-77
2023/05/15 17:28:48;;;;;;;3.53;2.30;;;;;;;;;;6326672;28;20030;-76
2023/05/15 17:31:48;;;;;;;4.47;2.07;;;;;;;;;;6329955;28;20077;-77
2023/05/15 17:34:51;;;;;;;1.87;1.40;;;;;;;;;;6328397;27;20030;-77
2023/05/15 17:37:51;;;;;;;3.17;2.10;;;;;;;;;;6330128;28;20059;-77
2023/05/15 17:40:52;;;;;;;4.23;2.13;;;;;;;;;;6319967;28;20069;-77
2023/05/15 17:43:52;;;;;;;3.83;2.23;;;;;;;;;;6337770;28;20047;-77
2023/05/15 17:46:53;;;;;;;5.17;2.63;;;;;;;;;;6327252;27;20637;-77
2023/05/15 17:49:54;;;;;;;3.40;2.00;;;;;;;;;;6325156;28;20131;-78
2023/05/15 17:52:54;;;;;;;4.97;2.73;;;;;;;;;;6319339;28;20246;-76
2023/05/15 17:55:54;;;;;;;5.93;2.70;;;;;;;;;;6332592;28;20024;-77
2023/05/15 17:58:54;;;;;;;4.37;2.00;;;;;;;;;;6332843;28;20115;-76
2023/05/15 18:01:55;;;;;;;6.47;2.77;;;;;;;;;;6325810;28;20477;-76